sensor_id;sensor_type;location;lat;lon;timestamp;pressure;altitude;pressure_sealevel;temperature;humidity
71043;BME280;58696;52.134;5.500;2022-08-30T00:02:17;102156.28;;;15.12;nan
71043;BME280;58696;52.134;5.500;2022-08-30T00:04:47;102171.19;;;15.10;nan
71043;BME280;58696;52.134;5.500;2022-08-30T00:07:14;102164.97;;;15.06;nan
71043;BME280;58696;52.134;5.500;2022-08-30T00:09:43;102170.22;;;15.04;nan
71043;BME280;58696;52.134;5.500;2022-08-30T00:12:10;102164.00;;;15.01;nan
71043;BME280;58696;52.134;5.500;2022-08-30T00:14:37;102155.16;;;14.97;nan
71043;BME280;58696;52.134;5.500;2022-08-30T00:17:04;102156.88;;;14.95;nan
71043;BME280;58696;52.134;5.500;2022-08-30T00:19:30;102158.59;;;14.93;nan
71043;BME280;58696;52.134;5.500;2022-08-30T00:21:57;102163.78;;;14.90;nan
71043;BME280;58696;52.134;5.500;2022-08-30T00:24:27;102161.06;;;14.85;nan
71043;BME280;58696;52.134;5.500;2022-08-30T00:26:56;102160.13;;;14.82;nan
71043;BME280;58696;52.134;5.500;2022-08-30T00:29:23;102163.56;;;14.77;nan
71043;BME280;58696;52.134;5.500;2022-08-30T00:31:50;102159.88;;;14.72;nan
71043;BME280;58696;52.134;5.500;2022-08-30T00:34:17;102158.94;;;14.69;nan
71043;BME280;58696;52.134;5.500;2022-08-30T00:36:44;102156.19;;;14.64;nan
71043;BME280;58696;52.134;5.500;2022-08-30T00:39:11;102156.13;;;14.61;nan
71043;BME280;58696;52.134;5.500;2022-08-30T00:41:38;102152.59;;;14.59;nan
71043;BME280;58696;52.134;5.500;2022-08-30T00:44:05;102154.28;;;14.57;nan
71043;BME280;58696;52.134;5.500;2022-08-30T00:46:35;102154.25;;;14.53;nan
71043;BME280;58696;52.134;5.500;2022-08-30T00:49:05;102150.69;;;14.51;nan
71043;BME280;58696;52.134;5.500;2022-08-30T00:51:33;102155.03;;;14.49;nan
71043;BME280;58696;52.134;5.500;2022-08-30T00:54:05;102162.00;;;14.47;nan
71043;BME280;58696;52.134;5.500;2022-08-30T00:56:33;102161.06;;;14.45;nan
71043;BME280;58696;52.134;5.500;2022-08-30T00:59:02;102162.78;;;14.43;nan
71043;BME280;58696;52.134;5.500;2022-08-30T01:01:30;102164.47;;;14.41;nan
71043;BME280;58696;52.134;5.500;2022-08-30T01:03:59;102165.31;;;14.38;nan
71043;BME280;58696;52.134;5.500;2022-08-30T01:06:26;102172.34;;;14.38;nan
71043;BME280;58696;52.134;5.500;2022-08-30T01:08:57;102162.59;;;14.34;nan
71043;BME280;58696;52.134;5.500;2022-08-30T01:11:24;102171.28;;;14.31;nan
71043;BME280;58696;52.134;5.500;2022-08-30T01:13:52;102168.66;;;14.31;nan
71043;BME280;58696;52.134;5.500;2022-08-30T01:16:23;102164.28;;;14.32;nan
71043;BME280;58696;52.134;5.500;2022-08-30T01:18:52;102167.78;;;14.31;nan
71043;BME280;58696;52.134;5.500;2022-08-30T01:21:23;102166.88;;;14.30;nan
71043;BME280;58696;52.134;5.500;2022-08-30T01:23:55;102173.03;;;14.31;nan
71043;BME280;58696;52.134;5.500;2022-08-30T01:26:27;102172.16;;;14.30;nan
71043;BME280;58696;52.134;5.500;2022-08-30T01:28:57;102171.28;;;14.31;nan
71043;BME280;58696;52.134;5.500;2022-08-30T01:31:28;102172.16;;;14.30;nan
71043;BME280;58696;52.134;5.500;2022-08-30T01:33:55;102170.34;;;14.27;nan
71043;BME280;58696;52.134;5.500;2022-08-30T01:36:23;102162.41;;;14.26;nan
71043;BME280;58696;52.134;5.500;2022-08-30T01:38:52;102161.50;;;14.25;nan
71043;BME280;58696;52.134;5.500;2022-08-30T01:41:25;102159.69;;;14.23;nan
71043;BME280;58696;52.134;5.500;2022-08-30T01:43:57;102172.81;;;14.21;nan
71043;BME280;58696;52.134;5.500;2022-08-30T01:46:27;102171.94;;;14.21;nan
71043;BME280;58696;52.134;5.500;2022-08-30T01:48:56;102170.09;;;14.17;nan
71043;BME280;58696;52.134;5.500;2022-08-30T01:51:25;102173.50;;;14.14;nan
71043;BME280;58696;52.134;5.500;2022-08-30T01:53:53;102175.28;;;14.13;nan
71043;BME280;58696;52.134;5.500;2022-08-30T01:56:21;102184.00;;;14.11;nan
71043;BME280;58696;52.134;5.500;2022-08-30T01:58:50;102180.41;;;14.09;nan
71043;BME280;58696;52.134;5.500;2022-08-30T02:01:19;102181.25;;;14.06;nan
71043;BME280;58696;52.134;5.500;2022-08-30T02:03:47;102184.69;;;14.04;nan
71043;BME280;58696;52.134;5.500;2022-08-30T02:06:16;102177.59;;;13.99;nan
71043;BME280;58696;52.134;5.500;2022-08-30T02:08:44;102173.16;;;13.97;nan
71043;BME280;58696;52.134;5.500;2022-08-30T02:11:11;102181.00;;;13.95;nan
71043;BME280;58696;52.134;5.500;2022-08-30T02:13:40;102176.56;;;13.93;nan
71043;BME280;58696;52.134;5.500;2022-08-30T02:16:11;102177.34;;;13.90;nan
71043;BME280;58696;52.134;5.500;2022-08-30T02:18:41;102173.81;;;13.88;nan
71043;BME280;58696;52.134;5.500;2022-08-30T02:21:13;102172.91;;;13.87;nan
71043;BME280;58696;52.134;5.500;2022-08-30T02:23:43;102167.59;;;13.86;nan
71043;BME280;58696;52.134;5.500;2022-08-30T02:26:11;102171.91;;;13.82;nan
71043;BME280;58696;52.134;5.500;2022-08-30T02:28:38;102161.31;;;13.79;nan
71043;BME280;58696;52.134;5.500;2022-08-30T02:31:08;102172.69;;;13.78;nan
71043;BME280;58696;52.134;5.500;2022-08-30T02:33:35;102172.66;;;13.76;nan
71043;BME280;58696;52.134;5.500;2022-08-30T02:36:05;102171.66;;;13.71;nan
71043;BME280;58696;52.134;5.500;2022-08-30T02:38:33;102178.50;;;13.66;nan
71043;BME280;58696;52.134;5.500;2022-08-30T02:41:03;102174.97;;;13.64;nan
71043;BME280;58696;52.134;5.500;2022-08-30T02:43:32;102173.97;;;13.60;nan
71043;BME280;58696;52.134;5.500;2022-08-30T02:45:59;102173.03;;;13.57;nan
71043;BME280;58696;52.134;5.500;2022-08-30T02:48:26;102160.66;;;13.53;nan
71043;BME280;58696;52.134;5.500;2022-08-30T02:50:52;102164.06;;;13.48;nan
71043;BME280;58696;52.134;5.500;2022-08-30T02:53:20;102162.22;;;13.46;nan
71043;BME280;58696;52.134;5.500;2022-08-30T02:55:49;102163.84;;;13.42;nan
71043;BME280;58696;52.134;5.500;2022-08-30T02:58:16;102160.31;;;13.40;nan
71043;BME280;58696;52.134;5.500;2022-08-30T03:00:43;102159.41;;;13.40;nan
71043;BME280;58696;52.134;5.500;2022-08-30T03:03:12;102154.97;;;13.37;nan
71043;BME280;58696;52.134;5.500;2022-08-30T03:05:39;102160.22;;;13.37;nan
71043;BME280;58696;52.134;5.500;2022-08-30T03:08:09;102156.66;;;13.35;nan
71043;BME280;58696;52.134;5.500;2022-08-30T03:10:36;102160.16;;;13.34;nan
71043;BME280;58696;52.134;5.500;2022-08-30T03:13:04;102150.38;;;13.28;nan
71043;BME280;58696;52.134;5.500;2022-08-30T03:15:34;102152.09;;;13.28;nan
71043;BME280;58696;52.134;5.500;2022-08-30T03:18:01;102147.69;;;13.27;nan
71043;BME280;58696;52.134;5.500;2022-08-30T03:20:28;102147.69;;;13.27;nan
71043;BME280;58696;52.134;5.500;2022-08-30T03:22:55;102140.69;;;13.25;nan
71043;BME280;58696;52.134;5.500;2022-08-30T03:25:22;102152.88;;;13.23;nan
71043;BME280;58696;52.134;5.500;2022-08-30T03:27:49;102141.50;;;13.23;nan
71043;BME280;58696;52.134;5.500;2022-08-30T03:30:19;102154.56;;;13.21;nan
71043;BME280;58696;52.134;5.500;2022-08-30T03:32:46;102151.91;;;13.20;nan
71043;BME280;58696;52.134;5.500;2022-08-30T03:35:16;102147.47;;;13.17;nan
71043;BME280;58696;52.134;5.500;2022-08-30T03:37:44;102146.56;;;13.17;nan
71043;BME280;58696;52.134;5.500;2022-08-30T03:40:14;102143.03;;;13.15;nan
71043;BME280;58696;52.134;5.500;2022-08-30T03:42:44;102147.38;;;13.14;nan
71043;BME280;58696;52.134;5.500;2022-08-30T03:45:11;102149.09;;;13.13;nan
71043;BME280;58696;52.134;5.500;2022-08-30T03:47:38;102148.28;;;13.15;nan
71043;BME280;58696;52.134;5.500;2022-08-30T03:50:11;102149.06;;;13.12;nan
71043;BME280;58696;52.134;5.500;2022-08-30T03:52:38;102156.06;;;13.11;nan
71043;BME280;58696;52.134;5.500;2022-08-30T03:55:08;102162.97;;;13.09;nan
71043;BME280;58696;52.134;5.500;2022-08-30T03:57:35;102155.91;;;13.07;nan
71043;BME280;58696;52.134;5.500;2022-08-30T04:00:03;102158.44;;;13.04;nan
71043;BME280;58696;52.134;5.500;2022-08-30T04:02:30;102159.31;;;13.03;nan
71043;BME280;58696;52.134;5.500;2022-08-30T04:04:57;102151.38;;;13.01;nan
71043;BME280;58696;52.134;5.500;2022-08-30T04:07:26;102151.28;;;12.98;nan
71043;BME280;58696;52.134;5.500;2022-08-30T04:09:53;102156.53;;;12.98;nan
71043;BME280;58696;52.134;5.500;2022-08-30T04:12:20;102156.53;;;12.98;nan
71043;BME280;58696;52.134;5.500;2022-08-30T04:14:48;102145.19;;;12.97;nan
71043;BME280;58696;52.134;5.500;2022-08-30T04:17:15;102159.13;;;12.96;nan
71043;BME280;58696;52.134;5.500;2022-08-30T04:19:42;102156.50;;;12.96;nan
71043;BME280;58696;52.134;5.500;2022-08-30T04:22:09;102141.59;;;12.95;nan
71043;BME280;58696;52.134;5.500;2022-08-30T04:24:36;102147.75;;;12.96;nan
71043;BME280;58696;52.134;5.500;2022-08-30T04:27:03;102153.88;;;12.96;nan
71043;BME280;58696;52.134;5.500;2022-08-30T04:29:31;102145.13;;;12.96;nan
71043;BME280;58696;52.134;5.500;2022-08-30T04:32:01;102141.59;;;12.95;nan
71043;BME280;58696;52.134;5.500;2022-08-30T04:34:27;102152.97;;;12.94;nan
71043;BME280;58696;52.134;5.500;2022-08-30T04:36:54;102160.84;;;12.94;nan
71043;BME280;58696;52.134;5.500;2022-08-30T04:39:24;102166.00;;;12.91;nan
71043;BME280;58696;52.134;5.500;2022-08-30T04:41:53;102164.28;;;12.92;nan
71043;BME280;58696;52.134;5.500;2022-08-30T04:44:24;102168.63;;;12.91;nan
71043;BME280;58696;52.134;5.500;2022-08-30T04:46:53;102159.78;;;12.88;nan
71043;BME280;58696;52.134;5.500;2022-08-30T04:49:21;102166.78;;;12.89;nan
71043;BME280;58696;52.134;5.500;2022-08-30T04:51:48;102165.06;;;12.89;nan
71043;BME280;58696;52.134;5.500;2022-08-30T04:54:16;102164.16;;;12.89;nan
71043;BME280;58696;52.134;5.500;2022-08-30T04:56:43;102170.38;;;12.91;nan
71043;BME280;58696;52.134;5.500;2022-08-30T04:59:12;102172.09;;;12.90;nan
71043;BME280;58696;52.134;5.500;2022-08-30T05:01:39;102176.53;;;12.93;nan
71043;BME280;58696;52.134;5.500;2022-08-30T05:04:11;102184.50;;;12.96;nan
71043;BME280;58696;52.134;5.500;2022-08-30T05:06:38;102180.13;;;12.96;nan
71043;BME280;58696;52.134;5.500;2022-08-30T05:09:05;102174.97;;;12.99;nan
71043;BME280;58696;52.134;5.500;2022-08-30T05:11:34;102177.63;;;13.01;nan
71043;BME280;58696;52.134;5.500;2022-08-30T05:14:04;102184.69;;;13.04;nan
71043;BME280;58696;52.134;5.500;2022-08-30T05:16:33;102186.50;;;13.06;nan
71043;BME280;58696;52.134;5.500;2022-08-30T05:19:00;102193.66;;;13.10;nan
71043;BME280;58696;52.134;5.500;2022-08-30T05:21:28;102186.75;;;13.14;nan
71043;BME280;58696;52.134;5.500;2022-08-30T05:23:56;102190.38;;;13.19;nan
71043;BME280;58696;52.134;5.500;2022-08-30T05:26:29;102190.50;;;13.24;nan
71043;BME280;58696;52.134;5.500;2022-08-30T05:28:59;102188.06;;;13.30;nan
71043;BME280;58696;52.134;5.500;2022-08-30T05:31:32;102188.19;;;13.35;nan
71043;BME280;58696;52.134;5.500;2022-08-30T05:34:00;102199.72;;;13.40;nan
71043;BME280;58696;52.134;5.500;2022-08-30T05:36:32;102196.31;;;13.44;nan
71043;BME280;58696;52.134;5.500;2022-08-30T05:39:00;102205.22;;;13.49;nan
71043;BME280;58696;52.134;5.500;2022-08-30T05:41:27;102198.28;;;13.52;nan
71043;BME280;58696;52.134;5.500;2022-08-30T05:43:56;102195.78;;;13.56;nan
71043;BME280;58696;52.134;5.500;2022-08-30T05:46:25;102201.16;;;13.61;nan
71043;BME280;58696;52.134;5.500;2022-08-30T05:48:55;102206.53;;;13.66;nan
71043;BME280;58696;52.134;5.500;2022-08-30T05:51:23;102211.84;;;13.69;nan
71043;BME280;58696;52.134;5.500;2022-08-30T05:53:52;102205.84;;;13.74;nan
71043;BME280;58696;52.134;5.500;2022-08-30T05:56:22;102206.97;;;13.83;nan
71043;BME280;58696;52.134;5.500;2022-08-30T05:58:50;102210.59;;;13.88;nan
71043;BME280;58696;52.134;5.500;2022-08-30T06:01:50;102208.09;;;13.94;nan
71043;BME280;58696;52.134;5.500;2022-08-30T06:04:20;102212.66;;;14.01;nan
71043;BME280;58696;52.134;5.500;2022-08-30T06:06:47;102206.72;;;14.09;nan
71043;BME280;58696;52.134;5.500;2022-08-30T06:09:14;102206.91;;;14.17;nan
71043;BME280;58696;52.134;5.500;2022-08-30T06:11:44;102197.41;;;14.23;nan
71043;BME280;58696;52.134;5.500;2022-08-30T06:14:12;102210.72;;;14.31;nan
71043;BME280;58696;52.134;5.500;2022-08-30T06:16:39;102207.38;;;14.38;nan
71043;BME280;58696;52.134;5.500;2022-08-30T06:19:07;102210.25;;;14.48;nan
71043;BME280;58696;52.134;5.500;2022-08-30T06:21:35;102204.31;;;14.58;nan
71043;BME280;58696;52.134;5.500;2022-08-30T06:24:04;102201.88;;;14.66;nan
71043;BME280;58696;52.134;5.500;2022-08-30T06:26:39;102201.16;;;14.73;nan
71043;BME280;58696;52.134;5.500;2022-08-30T06:29:08;102202.22;;;14.82;nan
71043;BME280;58696;52.134;5.500;2022-08-30T06:31:35;102200.66;;;14.90;nan
71043;BME280;58696;52.134;5.500;2022-08-30T06:34:03;102212.19;;;14.97;nan
71043;BME280;58696;52.134;5.500;2022-08-30T06:36:30;102212.34;;;15.04;nan
71043;BME280;58696;52.134;5.500;2022-08-30T06:39:00;102213.38;;;15.13;nan
71043;BME280;58696;52.134;5.500;2022-08-30T06:41:29;102217.06;;;15.21;nan
71043;BME280;58696;52.134;5.500;2022-08-30T06:43:59;102220.72;;;15.29;nan
71043;BME280;58696;52.134;5.500;2022-08-30T06:46:31;102212.09;;;15.37;nan
71043;BME280;58696;52.134;5.500;2022-08-30T06:49:00;102214.88;;;15.46;nan
71043;BME280;58696;52.134;5.500;2022-08-30T06:51:33;102219.47;;;15.56;nan
71043;BME280;58696;52.134;5.500;2022-08-30T06:54:01;102216.13;;;15.65;nan
71043;BME280;58696;52.134;5.500;2022-08-30T06:56:29;102213.63;;;15.75;nan
71043;BME280;58696;52.134;5.500;2022-08-30T06:58:56;102215.53;;;15.84;nan
71043;BME280;58696;52.134;5.500;2022-08-30T07:01:29;102220.09;;;15.94;nan
71043;BME280;58696;52.134;5.500;2022-08-30T07:03:58;102215.03;;;16.03;nan
71043;BME280;58696;52.134;5.500;2022-08-30T07:06:27;102215.13;;;16.11;nan
71043;BME280;58696;52.134;5.500;2022-08-30T07:08:55;102216.13;;;16.19;nan
71043;BME280;58696;52.134;5.500;2022-08-30T07:11:36;102207.53;;;16.31;nan
71043;BME280;58696;52.134;5.500;2022-08-30T07:14:04;102215.63;;;16.44;nan
71043;BME280;58696;52.134;5.500;2022-08-30T07:16:34;102210.47;;;16.55;nan
71043;BME280;58696;52.134;5.500;2022-08-30T07:19:04;102213.28;;;16.66;nan
71043;BME280;58696;52.134;5.500;2022-08-30T07:21:41;102214.34;;;16.79;nan
71043;BME280;58696;52.134;5.500;2022-08-30T07:24:11;102217.13;;;16.91;nan
71043;BME280;58696;52.134;5.500;2022-08-30T07:26:42;102209.34;;;17.02;nan
71043;BME280;58696;52.134;5.500;2022-08-30T07:29:09;102223.63;;;17.17;nan
71043;BME280;58696;52.134;5.500;2022-08-30T07:31:39;102207.28;;;17.55;nan
71043;BME280;58696;52.134;5.500;2022-08-30T07:34:06;102203.66;;;18.56;nan
71043;BME280;58696;52.134;5.500;2022-08-30T07:36:37;102202.22;;;19.75;nan
71043;BME280;58696;52.134;5.500;2022-08-30T07:39:05;102209.09;;;20.85;nan
71043;BME280;58696;52.134;5.500;2022-08-30T07:41:34;102218.47;;;21.53;nan
71043;BME280;58696;52.134;5.500;2022-08-30T07:44:08;102207.53;;;21.94;nan
71043;BME280;58696;52.134;5.500;2022-08-30T07:46:38;102211.47;;;22.43;nan
71043;BME280;58696;52.134;5.500;2022-08-30T07:49:08;102214.16;;;23.14;nan
71043;BME280;58696;52.134;5.500;2022-08-30T07:51:37;102206.63;;;23.46;nan
71043;BME280;58696;52.134;5.500;2022-08-30T07:54:05;102208.75;;;23.79;nan
71043;BME280;58696;52.134;5.500;2022-08-30T07:56:32;102205.34;;;24.22;nan
71043;BME280;58696;52.134;5.500;2022-08-30T07:59:00;102203.44;;;24.73;nan
71043;BME280;58696;52.134;5.500;2022-08-30T08:01:31;102211.75;;;24.58;nan
71043;BME280;58696;52.134;5.500;2022-08-30T08:03:58;102216.25;;;24.56;nan
71043;BME280;58696;52.134;5.500;2022-08-30T08:06:25;102217.44;;;24.85;nan
71043;BME280;58696;52.134;5.500;2022-08-30T08:08:55;102214.50;;;24.99;nan
71043;BME280;58696;52.134;5.500;2022-08-30T08:11:27;102218.00;;;25.01;nan
71043;BME280;58696;52.134;5.500;2022-08-30T08:13:59;102223.72;;;24.84;nan
71043;BME280;58696;52.134;5.500;2022-08-30T08:16:27;102218.78;;;25.08;nan
71043;BME280;58696;52.134;5.500;2022-08-30T08:18:55;102220.50;;;25.48;nan
71043;BME280;58696;52.134;5.500;2022-08-30T08:21:23;102220.56;;;25.45;nan
71043;BME280;58696;52.134;5.500;2022-08-30T08:23:53;102225.94;;;25.43;nan
71043;BME280;58696;52.134;5.500;2022-08-30T08:26:22;102224.53;;;25.66;nan
71043;BME280;58696;52.134;5.500;2022-08-30T08:28:49;102225.06;;;26.16;nan
71043;BME280;58696;52.134;5.500;2022-08-30T08:33:44;102221.22;;;26.26;nan
71043;BME280;58696;52.134;5.500;2022-08-30T08:36:12;102218.56;;;25.91;nan
71043;BME280;58696;52.134;5.500;2022-08-30T08:38:42;102228.78;;;25.75;nan
71043;BME280;58696;52.134;5.500;2022-08-30T08:41:36;102226.34;;;25.66;nan
71043;BME280;58696;52.134;5.500;2022-08-30T08:47:24;102229.66;;;25.38;nan
71043;BME280;58696;52.134;5.500;2022-08-30T08:49:55;102228.06;;;25.30;nan
71043;BME280;58696;52.134;5.500;2022-08-30T08:52:29;102228.63;;;25.43;nan
71043;BME280;58696;52.134;5.500;2022-08-30T08:55:23;102222.72;;;25.68;nan
71043;BME280;58696;52.134;5.500;2022-08-30T08:57:50;102225.44;;;25.67;nan
71043;BME280;58696;52.134;5.500;2022-08-30T09:00:18;102218.41;;;25.63;nan
71043;BME280;58696;52.134;5.500;2022-08-30T09:02:49;102216.19;;;25.79;nan
71043;BME280;58696;52.134;5.500;2022-08-30T09:05:22;102221.78;;;26.04;nan
71043;BME280;58696;52.134;5.500;2022-08-30T09:07:57;102226.94;;;25.77;nan
71043;BME280;58696;52.134;5.500;2022-08-30T09:10:27;102221.75;;;25.71;nan
71043;BME280;58696;52.134;5.500;2022-08-30T09:13:15;102220.00;;;25.70;nan
71043;BME280;58696;52.134;5.500;2022-08-30T09:15:42;102233.97;;;25.43;nan
71043;BME280;58696;52.134;5.500;2022-08-30T09:18:09;102226.97;;;24.98;nan
71043;BME280;58696;52.134;5.500;2022-08-30T09:20:47;102228.59;;;24.61;nan
71043;BME280;58696;52.134;5.500;2022-08-30T09:25:53;102221.63;;;24.07;nan
71043;BME280;58696;52.134;5.500;2022-08-30T09:28:26;102223.63;;;23.94;nan
71043;BME280;58696;52.134;5.500;2022-08-30T09:31:05;102218.34;;;23.89;nan
71043;BME280;58696;52.134;5.500;2022-08-30T09:33:37;102221.91;;;23.89;nan
71043;BME280;58696;52.134;5.500;2022-08-30T09:36:21;102221.84;;;23.94;nan
71043;BME280;58696;52.134;5.500;2022-08-30T09:39:16;102216.44;;;23.97;nan
71043;BME280;58696;52.134;5.500;2022-08-30T09:41:48;102212.72;;;24.05;nan
71043;BME280;58696;52.134;5.500;2022-08-30T09:44:24;102213.31;;;24.24;nan
71043;BME280;58696;52.134;5.500;2022-08-30T09:46:57;102208.91;;;24.23;nan
71043;BME280;58696;52.134;5.500;2022-08-30T09:49:41;102221.38;;;24.22;nan
71043;BME280;58696;52.134;5.500;2022-08-30T09:58:47;102222.69;;;23.96;nan
71043;BME280;58696;52.134;5.500;2022-08-30T10:01:19;102221.84;;;23.94;nan
71043;BME280;58696;52.134;5.500;2022-08-30T10:06:50;102229.81;;;23.97;nan
71043;BME280;58696;52.134;5.500;2022-08-30T10:10:02;102218.03;;;24.06;nan
71043;BME280;58696;52.134;5.500;2022-08-30T10:12:51;102222.16;;;24.27;nan
71043;BME280;58696;52.134;5.500;2022-08-30T10:15:27;102221.72;;;24.51;nan
71043;BME280;58696;52.134;5.500;2022-08-30T10:23:33;102224.09;;;24.65;nan
71043;BME280;58696;52.134;5.500;2022-08-30T10:26:30;102227.47;;;24.73;nan
71043;BME280;58696;52.134;5.500;2022-08-30T10:29:03;102221.91;;;24.86;nan
71043;BME280;58696;52.134;5.500;2022-08-30T10:34:28;102217.13;;;24.56;nan
71043;BME280;58696;52.134;5.500;2022-08-30T10:37:03;102222.22;;;24.69;nan
71043;BME280;58696;52.134;5.500;2022-08-30T10:39:35;102213.84;;;24.87;nan
71043;BME280;58696;52.134;5.500;2022-08-30T10:42:12;102219.00;;;24.95;nan
71043;BME280;58696;52.134;5.500;2022-08-30T10:44:48;102218.13;;;24.96;nan
71043;BME280;58696;52.134;5.500;2022-08-30T10:47:36;102221.31;;;25.12;nan
71043;BME280;58696;52.134;5.500;2022-08-30T10:50:19;102213.41;;;25.08;nan
71043;BME280;58696;52.134;5.500;2022-08-30T10:53:12;102211.88;;;24.96;nan
71043;BME280;58696;52.134;5.500;2022-08-30T10:55:48;102229.31;;;25.14;nan
71043;BME280;58696;52.134;5.500;2022-08-30T10:58:20;102220.94;;;25.29;nan
71043;BME280;58696;52.134;5.500;2022-08-30T11:07:43;102215.00;;;25.91;nan
71043;BME280;58696;52.134;5.500;2022-08-30T11:18:24;102200.47;;;26.35;nan
71043;BME280;58696;52.134;5.500;2022-08-30T11:20:54;102198.50;;;26.40;nan
71043;BME280;58696;52.134;5.500;2022-08-30T11:23:30;102191.66;;;26.61;nan
71043;BME280;58696;52.134;5.500;2022-08-30T11:31:07;102196.94;;;26.64;nan
71043;BME280;58696;52.134;5.500;2022-08-30T11:33:46;102200.59;;;26.92;nan
71043;BME280;58696;52.134;5.500;2022-08-30T11:44:45;102189.69;;;27.27;nan
71043;BME280;58696;52.134;5.500;2022-08-30T11:47:38;102180.97;;;27.47;nan
71043;BME280;58696;52.134;5.500;2022-08-30T11:50:59;102185.31;;;27.51;nan
71043;BME280;58696;52.134;5.500;2022-08-30T11:55:55;102174.09;;;27.92;nan
71043;BME280;58696;52.134;5.500;2022-08-30T12:01:17;102172.06;;;27.99;nan
71043;BME280;58696;52.134;5.500;2022-08-30T12:04:07;102157.53;;;27.79;nan
71043;BME280;58696;52.134;5.500;2022-08-30T12:14:51;102170.66;;;27.06;nan
71043;BME280;58696;52.134;5.500;2022-08-30T12:17:32;102168.97;;;27.03;nan
71043;BME280;58696;52.134;5.500;2022-08-30T12:20:45;102164.00;;;27.18;nan
71043;BME280;58696;52.134;5.500;2022-08-30T12:29:04;102163.84;;;28.04;nan
71043;BME280;58696;52.134;5.500;2022-08-30T12:31:31;102162.16;;;28.25;nan
71043;BME280;58696;52.134;5.500;2022-08-30T12:34:00;102160.16;;;28.32;nan
71043;BME280;58696;52.134;5.500;2022-08-30T12:36:40;102161.56;;;28.42;nan
71043;BME280;58696;52.134;5.500;2022-08-30T12:39:24;102151.59;;;28.44;nan
71043;BME280;58696;52.134;5.500;2022-08-30T12:41:51;102150.72;;;28.44;nan
71043;BME280;58696;52.134;5.500;2022-08-30T12:44:23;102143.50;;;28.20;nan
71043;BME280;58696;52.134;5.500;2022-08-30T12:47:01;102148.13;;;28.17;nan
71043;BME280;58696;52.134;5.500;2022-08-30T12:49:33;102155.53;;;28.35;nan
71043;BME280;58696;52.134;5.500;2022-08-30T12:54:45;102142.53;;;28.47;nan
71043;BME280;58696;52.134;5.500;2022-08-30T12:57:34;102148.13;;;28.42;nan
71043;BME280;58696;52.134;5.500;2022-08-30T13:00:02;102146.06;;;28.49;nan
71043;BME280;58696;52.134;5.500;2022-08-30T13:02:48;102149.16;;;28.62;nan
71043;BME280;58696;52.134;5.500;2022-08-30T13:10:54;102142.47;;;28.48;nan
71043;BME280;58696;52.134;5.500;2022-08-30T13:19:24;102123.22;;;28.59;nan
71043;BME280;58696;52.134;5.500;2022-08-30T13:21:54;102121.47;;;28.58;nan
71043;BME280;58696;52.134;5.500;2022-08-30T13:24:23;102129.44;;;28.61;nan
71043;BME280;58696;52.134;5.500;2022-08-30T13:26:53;102123.38;;;28.56;nan
71043;BME280;58696;52.134;5.500;2022-08-30T13:29:24;102113.34;;;28.37;nan
71043;BME280;58696;52.134;5.500;2022-08-30T13:31:52;102120.16;;;28.22;nan
71043;BME280;58696;52.134;5.500;2022-08-30T13:34:20;102118.19;;;28.28;nan
71043;BME280;58696;52.134;5.500;2022-08-30T13:36:51;102108.91;;;28.36;nan
71043;BME280;58696;52.134;5.500;2022-08-30T13:39:18;102106.22;;;28.36;nan
71043;BME280;58696;52.134;5.500;2022-08-30T13:41:47;102109.97;;;28.32;nan
71043;BME280;58696;52.134;5.500;2022-08-30T13:44:14;102106.50;;;28.29;nan
71043;BME280;58696;52.134;5.500;2022-08-30T13:46:44;102110.13;;;28.28;nan
71043;BME280;58696;52.134;5.500;2022-08-30T13:49:23;102114.34;;;28.09;nan
71043;BME280;58696;52.134;5.500;2022-08-30T13:52:13;102098.38;;;27.81;nan
71043;BME280;58696;52.134;5.500;2022-08-30T13:54:49;102095.88;;;27.49;nan
71043;BME280;58696;52.134;5.500;2022-08-30T13:57:20;102105.28;;;27.35;nan
71043;BME280;58696;52.134;5.500;2022-08-30T14:00:11;102111.09;;;27.23;nan
71043;BME280;58696;52.134;5.500;2022-08-30T14:02:40;102100.25;;;26.99;nan
71043;BME280;58696;52.134;5.500;2022-08-30T14:05:11;102094.16;;;26.92;nan
71043;BME280;58696;52.134;5.500;2022-08-30T14:07:56;102094.59;;;26.78;nan
71043;BME280;58696;52.134;5.500;2022-08-30T14:10:26;102102.28;;;26.62;nan
71043;BME280;58696;52.134;5.500;2022-08-30T14:12:57;102101.09;;;26.42;nan
71043;BME280;58696;52.134;5.500;2022-08-30T14:15:33;102097.09;;;26.24;nan
71043;BME280;58696;52.134;5.500;2022-08-30T14:18:00;102102.25;;;26.00;nan
71043;BME280;58696;52.134;5.500;2022-08-30T14:20:27;102089.72;;;25.69;nan
71043;BME280;58696;52.134;5.500;2022-08-30T14:22:54;102098.03;;;25.58;nan
71043;BME280;58696;52.134;5.500;2022-08-30T14:25:21;102098.31;;;25.47;nan
71043;BME280;58696;52.134;5.500;2022-08-30T14:27:48;102087.81;;;25.38;nan
71043;BME280;58696;52.134;5.500;2022-08-30T14:30:17;102087.16;;;25.29;nan
71043;BME280;58696;52.134;5.500;2022-08-30T14:32:46;102094.75;;;25.12;nan
71043;BME280;58696;52.134;5.500;2022-08-30T14:35:14;102088.63;;;25.05;nan
71043;BME280;58696;52.134;5.500;2022-08-30T14:37:44;102091.56;;;24.94;nan
71043;BME280;58696;52.134;5.500;2022-08-30T14:40:11;102091.97;;;24.75;nan
71043;BME280;58696;52.134;5.500;2022-08-30T14:42:38;102099.47;;;24.59;nan
71043;BME280;58696;52.134;5.500;2022-08-30T14:45:05;102092.47;;;24.53;nan
71043;BME280;58696;52.134;5.500;2022-08-30T14:47:32;102089.84;;;24.52;nan
71043;BME280;58696;52.134;5.500;2022-08-30T14:49:59;102092.47;;;24.53;nan
71043;BME280;58696;52.134;5.500;2022-08-30T14:52:28;102083.59;;;24.51;nan
71043;BME280;58696;52.134;5.500;2022-08-30T14:54:57;102084.59;;;24.47;nan
71043;BME280;58696;52.134;5.500;2022-08-30T14:57:29;102084.66;;;24.44;nan
71043;BME280;58696;52.134;5.500;2022-08-30T14:59:56;102091.06;;;24.37;nan